KBMG/BMG METAR and TAF weather

Enter ICAO airport designator
Station Type Date Time Source
KBMG METAR 2022/01/29 09:53 UTC NOAA

KBMG 290953Z AUTO 00000KT 10SM CLR M18/M22 A3028 RMK AO2 SLP269 I1000 T11831217


Station Type Date Time Source
KBMG Decoded METAR 2022/01/29 09:53 UTC NOAA

MONROE COUNTY AIRPORT, IN, United States (KBMG) 39-09N 086-37W 257M
Jan 29, 2022 - 04:53 AM EST / 2022.01.29 0953 UTC
Wind: Calm:0
Visibility: 10 mile(s):0
Sky conditions: clear
Temperature: -0.9 F (-18.3 C)
Dew Point: -7.1 F (-21.7 C)
Relative Humidity: 74%
Pressure (altimeter): 30.28 in. Hg (1025 hPa)
ob: KBMG 290953Z AUTO 00000KT 10SM CLR M18/M22 A3028 RMK AO2 SLP269 I1000 T11831217
cycle: 10

Station Type Date Time Source
KBMG TAF 2022/01/29 06:22 UTC NOAA

TAF KBMG 290520Z 2906/3006 34002KT P6SM FEW250
FM291500 22007KT P6SM SCT100 BKN250
FM292300 18004KT P6SM BKN150
AMD LTD TO CLD VIS AND WIND TIL 291400

Example: see airport list